Time;durP1;ratioP1;P1;durP2;ratioP2;P2;SDS_P1;SDS_P2;PMS_P1;PMS_P2;Temp;Humidity;BMP_temperature;BMP_pressure;BME280_temperature;BME280_humidity;BME280_pressure;Samples;Min_cycle;Max_cycle;Signal;HPM_P1;HPM_P2
2021/11/11 00:02:22;;;;;;;67.30;36.17;;;;;;;0.81;79.90;99888.91;2221286;80;20956;-80
2021/11/11 00:05:23;;;;;;;62.60;34.90;;;;;;;0.80;80.02;99886.73;2221198;80;20946;-81
2021/11/11 00:08:23;;;;;;;62.60;34.73;;;;;;;0.79;80.02;99884.05;2221062;80;20980;-81
2021/11/11 00:11:24;;;;;;;60.73;34.77;;;;;;;0.78;79.91;99884.84;2220847;80;21372;-80
2021/11/11 00:14:25;;;;;;;66.77;35.83;;;;;;;0.74;79.83;99864.47;2221324;80;20980;-80
2021/11/11 00:17:25;;;;;;;63.17;34.33;;;;;;;0.72;79.62;99871.19;2221341;80;21260;-80
2021/11/11 00:20:26;;;;;;;56.30;33.87;;;;;;;0.69;79.49;99864.95;2220380;80;20984;-81
2021/11/11 00:23:26;;;;;;;62.40;34.47;;;;;;;0.68;79.66;99866.64;2220488;80;20972;-81
2021/11/11 00:26:27;;;;;;;63.77;35.77;;;;;;;0.66;79.74;99875.92;2221065;80;21042;-81
2021/11/11 00:29:28;;;;;;;63.03;35.33;;;;;;;0.68;79.97;99876.02;2220917;80;20964;-81
2021/11/11 00:32:28;;;;;;;63.17;36.63;;;;;;;0.69;80.11;99876.12;2221057;80;21003;-81
2021/11/11 00:35:29;;;;;;;65.67;37.13;;;;;;;0.70;80.17;99875.34;2220465;80;20963;-81
2021/11/11 00:38:29;;;;;;;70.90;37.17;;;;;;;0.72;79.91;99870.30;2220877;80;21043;-80
2021/11/11 00:41:30;;;;;;;74.73;41.27;;;;;;;1.01;85.32;99865.83;2221200;80;20952;-80
2021/11/11 00:44:31;;;;;;;66.47;39.30;;;;;;;1.67;85.76;99868.37;2221363;80;21343;-80
2021/11/11 00:47:32;;;;;;;70.53;37.93;;;;;;;1.69;79.97;99862.92;2220912;80;20992;-80
2021/11/11 00:50:33;;;;;;;66.63;38.27;;;;;;;1.41;79.11;99870.58;2221393;80;20948;-80
2021/11/11 00:53:33;;;;;;;64.63;36.60;;;;;;;1.21;78.82;99868.02;2221373;80;21372;-80
2021/11/11 00:56:33;;;;;;;67.10;37.40;;;;;;;1.05;78.59;99871.27;2221375;80;21610;-81
2021/11/11 00:59:34;;;;;;;65.20;37.60;;;;;;;0.93;78.72;99864.05;2221454;80;20960;-81
2021/11/11 01:02:36;;;;;;;67.87;36.77;;;;;;;0.80;78.72;99871.31;2220747;80;20960;-81
2021/11/11 01:05:37;;;;;;;60.30;36.57;;;;;;;0.74;78.90;99873.86;2220662;80;20972;-80
2021/11/11 01:08:37;;;;;;;66.87;36.40;;;;;;;0.70;79.01;99873.16;2217643;80;21039;-80
2021/11/11 01:11:38;;;;;;;65.60;36.00;;;;;;;0.66;79.13;99864.36;2210494;81;20940;-81
2021/11/11 01:14:38;;;;;;;61.40;37.00;;;;;;;0.62;79.03;99863.66;2210417;81;21040;-81
2021/11/11 01:17:39;;;;;;;66.43;36.10;;;;;;;0.58;79.19;99866.42;2210762;81;21351;-81
2021/11/11 01:20:39;;;;;;;63.97;36.13;;;;;;;0.58;79.47;99868.98;2210948;81;21347;-82
2021/11/11 01:23:40;;;;;;;67.07;36.57;;;;;;;0.60;79.42;99877.69;2210693;81;20999;-81
2021/11/11 01:26:40;;;;;;;67.60;35.30;;;;;;;0.60;79.36;99873.84;2210229;81;21059;-81
2021/11/11 01:29:41;;;;;;;64.57;35.40;;;;;;;0.60;79.12;99869.98;2210073;81;20964;-81
2021/11/11 01:32:41;;;;;;;63.60;34.80;;;;;;;0.58;79.11;99870.27;2210225;81;20948;-81
2021/11/11 01:35:42;;;;;;;66.83;36.07;;;;;;;0.59;79.13;99868.20;2210522;81;20959;-81
2021/11/11 01:38:42;;;;;;;80.30;36.37;;;;;;;0.62;79.41;99876.50;2210002;81;21024;-81
2021/11/11 01:41:43;;;;;;;63.93;35.20;;;;;;;0.60;79.15;99872.55;2211040;81;21398;-82
2021/11/11 01:44:43;;;;;;;64.80;34.50;;;;;;;0.58;79.17;99872.84;2210414;81;20960;-81
2021/11/11 01:47:44;;;;;;;57.30;32.87;;;;;;;0.55;78.89;99871.34;2211086;81;20987;-81
2021/11/11 01:50:44;;;;;;;61.67;34.60;;;;;;;0.55;79.00;99873.92;2211091;81;20951;-82
2021/11/11 01:53:45;;;;;;;59.27;33.50;;;;;;;0.51;78.67;99868.08;2210926;81;20972;-81
2021/11/11 01:56:45;;;;;;;61.90;34.20;;;;;;;0.41;78.51;99866.96;2211023;81;20968;-82
2021/11/11 01:59:46;;;;;;;56.47;33.80;;;;;;;0.39;78.81;99867.25;2211129;81;20996;-81
2021/11/11 02:02:47;;;;;;;61.23;34.10;;;;;;;0.40;78.75;99861.72;2211051;81;21358;-81
2021/11/11 02:05:47;;;;;;;60.80;35.47;;;;;;;0.38;78.87;99858.16;2211070;81;20983;-81
2021/11/11 02:08:48;;;;;;;63.67;36.57;;;;;;;0.40;79.03;99862.61;2210953;80;21410;-81
2021/11/11 02:11:49;;;;;;;64.23;38.03;;;;;;;0.42;79.16;99858.47;2210863;81;21317;-81
2021/11/11 02:14:49;;;;;;;69.37;37.10;;;;;;;0.41;79.18;99856.69;2210973;81;20972;-81
2021/11/11 02:17:50;;;;;;;65.00;36.57;;;;;;;0.45;79.60;99860.35;2211398;81;20972;-81
2021/11/11 02:20:51;;;;;;;61.73;36.27;;;;;;;0.47;79.52;99851.96;2210680;81;20988;-81
2021/11/11 02:23:51;;;;;;;60.80;34.30;;;;;;;0.51;79.63;99851.38;2210612;81;20945;-81
2021/11/11 02:26:52;;;;;;;60.13;33.80;;;;;;;0.55;79.61;99849.91;2210897;81;21035;-81
2021/11/11 02:29:52;;;;;;;57.00;33.60;;;;;;;0.61;79.77;99853.77;2211066;81;20933;-82
2021/11/11 02:32:53;;;;;;;59.67;34.07;;;;;;;0.64;79.66;99847.55;2211174;81;21292;-81
2021/11/11 02:35:53;;;;;;;65.13;34.07;;;;;;;0.69;79.70;99845.30;2210928;81;21011;-80
2021/11/11 02:38:55;;;;;;;59.63;34.87;;;;;;;0.70;79.38;99842.33;2210919;81;20999;-81
2021/11/11 02:41:55;;;;;;;61.87;33.83;;;;;;;0.73;79.29;99841.25;2210909;81;21297;-81
2021/11/11 02:45:00;;;;;;;60.13;34.07;;;;;;;0.74;79.29;99836.60;2211443;81;21016;-82
2021/11/11 02:47:58;;;;;;;111.73;64.33;;;;;;;0.74;79.35;99833.64;2210559;80;21072;-80
2021/11/11 02:50:59;;;;;;;83.53;46.27;;;;;;;0.77;79.54;99826.52;2211317;81;20941;-81
2021/11/11 02:53:59;;;;;;;62.90;35.83;;;;;;;0.77;79.21;99821.38;2210935;81;20901;-81
2021/11/11 02:56:59;;;;;;;57.33;33.77;;;;;;;0.77;79.28;99818.42;2211030;81;20905;-81
2021/11/11 03:00:00;;;;;;;62.30;33.20;;;;;;;0.77;79.17;99814.56;2210885;81;20957;-81
2021/11/11 03:03:01;;;;;;;53.20;32.47;;;;;;;0.77;79.13;99809.81;2210833;81;20969;-81
2021/11/11 03:06:01;;;;;;;63.23;34.73;;;;;;;0.75;78.96;99800.72;2210908;81;20945;-81
2021/11/11 03:09:02;;;;;;;61.60;35.47;;;;;;;0.71;78.93;99802.59;2210486;80;21000;-81
2021/11/11 03:12:02;;;;;;;60.03;33.30;;;;;;;0.70;79.13;99803.38;2210909;81;21354;-81
2021/11/11 03:15:03;;;;;;;64.63;34.03;;;;;;;0.68;79.05;99804.08;2211149;81;21406;-81
2021/11/11 03:18:03;;;;;;;52.97;32.00;;;;;;;0.62;78.99;99795.17;2211005;81;20972;-81
2021/11/11 03:21:04;;;;;;;58.23;32.60;;;;;;;0.63;78.93;99794.78;2210994;81;20960;-80
2021/11/11 03:24:05;;;;;;;54.17;33.47;;;;;;;0.59;78.81;99794.97;2211124;81;20987;-81
2021/11/11 03:27:05;;;;;;;58.20;32.87;;;;;;;0.56;78.82;99803.77;2210844;81;20979;-80
2021/11/11 03:30:06;;;;;;;59.87;34.20;;;;;;;0.57;78.91;99796.95;2211052;81;20949;-81
2021/11/11 03:33:06;;;;;;;60.17;34.77;;;;;;;0.60;78.95;99793.30;2210888;81;20952;-80
2021/11/11 03:36:07;;;;;;;71.13;33.40;;;;;;;0.60;78.54;99796.75;2210455;81;21411;-80
2021/11/11 03:39:07;;;;;;;60.23;32.43;;;;;;;0.57;78.62;99800.41;2210519;81;21410;-81
2021/11/11 03:42:08;;;;;;;68.13;36.73;;;;;;;0.55;78.56;99798.13;2211022;81;20979;-80
2021/11/11 03:45:08;;;;;;;57.73;32.70;;;;;;;0.48;78.34;99800.19;2211027;81;21011;-81
2021/11/11 03:48:09;;;;;;;56.73;30.03;;;;;;;0.45;78.37;99798.31;2210949;81;21008;-81
2021/11/11 03:51:09;;;;;;;53.00;31.23;;;;;;;0.40;78.41;99787.23;2210804;81;20956;-81
2021/11/11 03:54:13;;;;;;;64.30;29.80;;;;;;;0.37;78.57;99792.17;2210977;81;21103;-82
2021/11/11 03:57:12;;;;;;;51.27;29.60;;;;;;;0.36;78.25;99789.10;2210515;81;20956;-82
2021/11/11 04:00:13;;;;;;;56.93;31.63;;;;;;;0.33;78.30;99784.66;2210727;81;20987;-80
2021/11/11 04:03:14;;;;;;;56.77;32.30;;;;;;;0.30;78.23;99776.74;2210232;81;21253;-81
2021/11/11 04:06:14;;;;;;;55.70;29.73;;;;;;;0.29;78.24;99777.14;2210032;81;20980;-80
2021/11/11 04:09:15;;;;;;;54.37;30.43;;;;;;;0.31;78.44;99782.38;2213140;80;21032;-80
2021/11/11 04:12:15;;;;;;;46.97;28.80;;;;;;;0.32;78.60;99777.73;2220757;80;21408;-80
2021/11/11 04:15:16;;;;;;;54.87;29.67;;;;;;;0.31;78.45;99773.39;2221368;80;21387;-81
2021/11/11 04:18:16;;;;;;;53.07;29.33;;;;;;;0.31;78.32;99774.28;2221290;80;20976;-80
2021/11/11 04:21:17;;;;;;;51.33;29.67;;;;;;;0.30;78.29;99776.74;2221220;80;20940;-80
2021/11/11 04:24:17;;;;;;;49.00;28.97;;;;;;;0.27;78.08;99779.11;2220897;80;20990;-80
2021/11/11 04:27:26;;;;;;;52.17;29.77;;;;;;;0.25;78.09;99775.55;2221215;80;20987;-81
2021/11/11 04:30:28;;;;;;;56.07;31.20;;;;;;;0.23;78.25;99776.73;2219417;80;21445;-81
2021/11/11 04:33:23;;;;;;;54.57;30.43;;;;;;;0.41;81.17;99775.78;2219422;80;20967;-80
2021/11/11 04:36:45;;;;;;;48.93;29.33;;;;;;;0.48;78.59;99783.49;2220977;80;20952;-81
2021/11/11 04:46:52;;;;;;;60.85;31.40;;;;;;;0.30;78.11;99772.89;2190829;80;21035;-81
2021/11/11 04:52:31;;;;;;;53.07;31.63;;;;;;;0.24;77.98;99765.67;2190884;80;21359;-81
2021/11/11 05:05:24;;;;;;;58.57;31.37;;;;;;;0.67;79.06;99752.19;2190743;80;21019;-81
2021/11/11 05:08:24;;;;;;;56.73;31.53;;;;;;;0.58;78.01;99755.94;2221025;80;21387;-80
2021/11/11 05:11:25;;;;;;;57.07;32.23;;;;;;;0.49;77.70;99756.63;2211027;80;21092;-81
2021/11/11 05:14:25;;;;;;;63.17;31.87;;;;;;;0.39;77.63;99756.81;2210518;81;21007;-81
2021/11/11 05:17:26;;;;;;;53.53;30.63;;;;;;;0.30;77.71;99757.09;2210269;81;20964;-81
2021/11/11 05:20:27;;;;;;;48.37;31.03;;;;;;;0.21;77.76;99758.16;2209660;81;21629;-81
2021/11/11 05:23:27;;;;;;;59.07;33.03;;;;;;;0.16;77.83;99756.56;2209809;81;20948;-81
2021/11/11 05:26:29;;;;;;;118.87;35.63;;;;;;;0.14;77.75;99758.14;2209332;81;21437;-81
2021/11/11 05:29:29;;;;;;;52.60;31.07;;;;;;;0.11;77.85;99767.31;2209708;81;21007;-82
2021/11/11 05:32:30;;;;;;;58.03;33.20;;;;;;;0.09;77.64;99767.61;2209624;81;20972;-81
2021/11/11 05:35:30;;;;;;;62.47;33.20;;;;;;;0.06;77.88;99769.96;2210854;81;20995;-82
2021/11/11 05:38:31;;;;;;;56.23;33.07;;;;;;;0.06;77.63;99768.28;2210994;81;20945;-81
2021/11/11 05:41:31;;;;;;;51.03;30.90;;;;;;;0.02;77.51;99767.58;2210943;81;21000;-81
2021/11/11 05:44:32;;;;;;;57.43;29.07;;;;;;;-0.01;77.79;99771.19;2210616;81;20936;-81
2021/11/11 05:47:32;;;;;;;45.97;28.23;;;;;;;-0.06;77.68;99773.45;2210861;81;21391;-81
2021/11/11 05:50:33;;;;;;;58.57;31.93;;;;;;;-0.09;77.66;99769.78;2210914;81;20964;-82
2021/11/11 05:53:33;;;;;;;69.70;34.83;;;;;;;-0.08;77.67;99776.30;2210296;81;20980;-81
2021/11/11 05:56:33;;;;;;;59.30;30.33;;;;;;;-0.09;77.75;99769.78;2210717;81;20928;-81
2021/11/11 05:59:36;;;;;;;84.80;30.80;;;;;;;-0.04;77.92;99768.02;2210169;81;20996;-82
2021/11/11 06:02:36;;;;;;;65.23;29.37;;;;;;;0.01;78.01;99759.78;2210411;81;21439;-81
2021/11/11 06:05:37;;;;;;;67.57;30.50;;;;;;;0.04;77.81;99762.55;2210467;81;20956;-80
2021/11/11 06:08:37;;;;;;;54.83;29.40;;;;;;;0.07;77.85;99764.05;2209590;81;20979;-80
2021/11/11 06:11:38;;;;;;;48.80;29.97;;;;;;;0.13;77.83;99767.02;2209228;80;21054;-81
2021/11/11 06:14:38;;;;;;;45.87;27.10;;;;;;;0.17;77.67;99764.77;2209786;81;21335;-80
2021/11/11 06:17:39;;;;;;;50.17;28.13;;;;;;;0.15;77.37;99747.47;2209955;81;20988;-80
2021/11/11 06:20:44;;;;;;;44.80;27.00;;;;;;;0.16;77.28;99755.67;2210089;81;21308;-81
2021/11/11 06:23:42;;;;;;;52.60;28.93;;;;;;;0.19;77.35;99750.74;2210044;80;20992;-81
2021/11/11 06:26:42;;;;;;;50.30;29.20;;;;;;;0.26;77.42;99751.65;2210652;81;21035;-80
2021/11/11 06:29:43;;;;;;;47.73;28.47;;;;;;;0.32;77.31;99748.20;2210542;81;21372;-81
2021/11/11 06:32:43;;;;;;;48.67;28.03;;;;;;;0.38;77.32;99749.89;2211140;81;20964;-80
2021/11/11 06:35:44;;;;;;;48.80;28.77;;;;;;;0.46;77.57;99758.98;2210940;81;21381;-80
2021/11/11 06:38:44;;;;;;;46.70;28.00;;;;;;;0.55;77.16;99762.55;2210328;81;20932;-80
2021/11/11 06:41:45;;;;;;;54.03;28.83;;;;;;;0.58;77.11;99761.08;2209630;81;21047;-81
2021/11/11 06:44:47;;;;;;;51.27;28.83;;;;;;;0.63;77.24;99762.27;2210332;81;20979;-81
2021/11/11 06:47:48;;;;;;;47.90;29.00;;;;;;;0.72;77.06;99760.69;2210742;81;21361;-81
2021/11/11 06:50:48;;;;;;;55.80;29.93;;;;;;;0.77;77.08;99760.59;2211109;81;20964;-81
2021/11/11 06:53:49;;;;;;;38.20;20.67;;;;;;;0.86;77.10;99761.58;2210926;81;20929;-81
2021/11/11 06:56:49;;;;;;;45.57;26.23;;;;;;;1.98;92.05;99747.60;2210822;81;20968;-82
2021/11/11 06:59:50;;;;;;;45.07;26.97;;;;;;;7.28;94.75;99734.94;2210805;81;20999;-82
2021/11/11 07:02:50;;;;;;;46.30;28.70;;;;;;;10.97;78.39;99719.87;2210264;81;20933;-81
2021/11/11 07:05:51;;;;;;;39.57;23.40;;;;;;;13.40;69.00;99712.06;2209957;81;20913;-84
2021/11/11 07:08:51;;;;;;;46.27;28.13;;;;;;;13.90;64.84;99714.08;2209758;81;20971;-82
2021/11/11 07:11:52;;;;;;;32.97;20.83;;;;;;;13.77;56.86;99705.56;2209518;80;21819;-84
2021/11/11 07:14:53;;;;;;;36.97;22.70;;;;;;;11.60;59.70;99710.03;2210040;81;20988;-82
2021/11/11 07:17:53;;;;;;;41.80;27.23;;;;;;;13.76;58.66;99708.17;2210182;81;21003;-80
2021/11/11 07:20:54;;;;;;;41.53;28.00;;;;;;;14.60;53.45;99703.48;2210011;81;20988;-78
2021/11/11 07:23:54;;;;;;;48.23;27.20;;;;;;;12.11;51.38;99700.20;2209938;81;20948;-79
2021/11/11 07:26:55;;;;;;;45.30;28.90;;;;;;;9.92;52.94;99702.70;2210382;81;21027;-79
2021/11/11 07:29:55;;;;;;;39.83;27.40;;;;;;;8.41;54.71;99704.45;2210594;81;21371;-79
2021/11/11 07:32:56;;;;;;;43.17;28.17;;;;;;;7.28;56.68;99705.08;2210747;81;20948;-78
2021/11/11 07:35:56;;;;;;;48.80;28.60;;;;;;;6.51;58.62;99711.00;2211086;81;20997;-81
2021/11/11 07:38:59;;;;;;;48.47;30.93;;;;;;;8.30;69.18;99696.25;2210861;81;21008;-80
2021/11/11 07:41:59;;;;;;;43.40;29.07;;;;;;;11.15;66.36;99694.17;2210639;81;21043;-81
2021/11/11 07:45:00;;;;;;;48.47;30.33;;;;;;;13.14;61.41;99682.81;2211030;81;20936;-80
2021/11/11 07:48:03;;;;;;;42.27;28.30;;;;;;;14.30;59.19;99683.90;2210993;81;21027;-81
2021/11/11 07:51:04;;;;;;;44.23;28.92;;;;;;;15.12;56.12;99682.91;2210630;81;21024;-81
2021/11/11 07:54:05;;;;;;;47.27;31.12;;;;;;;15.57;54.57;99691.11;2210825;81;21008;-81
2021/11/11 07:57:05;;;;;;;45.52;29.07;;;;;;;16.00;53.02;99679.91;2210250;81;20980;-81
2021/11/11 08:00:06;;;;;;;39.67;28.02;;;;;;;16.30;52.24;99674.72;2209905;81;21348;-82
2021/11/11 08:03:06;;;;;;;43.78;29.52;;;;;;;16.56;50.96;99674.34;2210476;81;21011;-81
2021/11/11 08:06:08;;;;;;;45.55;31.07;;;;;;;16.73;50.63;99668.23;2210709;81;20984;-80
2021/11/11 08:09:08;;;;;;;41.55;30.30;;;;;;;16.95;49.25;99672.63;2210707;81;20980;-81
2021/11/11 08:12:10;;;;;;;47.88;31.35;;;;;;;17.13;49.48;99669.97;2220057;80;21046;-81
2021/11/11 08:15:10;;;;;;;47.98;31.50;;;;;;;17.26;48.42;99673.47;2221190;80;21054;-81
2021/11/11 08:18:12;;;;;;;42.23;31.25;;;;;;;17.36;49.39;99679.19;2190148;80;20955;-81
2021/11/11 08:21:13;;;;;;;43.35;30.43;;;;;;;17.44;47.69;99665.98;2220941;80;21375;-80
2021/11/11 08:24:14;;;;;;;42.83;30.70;;;;;;;17.57;48.15;99672.98;2221273;80;21027;-80
2021/11/11 08:27:14;;;;;;;38.63;29.60;;;;;;;17.63;46.07;99676.91;2220303;80;20975;-80
2021/11/11 08:30:15;;;;;;;45.75;31.40;;;;;;;17.63;46.07;99676.91;2220690;80;20972;-80
2021/11/11 08:33:15;;;;;;;48.75;32.88;;;;;;;17.41;45.86;99674.78;2220602;80;20995;-80
2021/11/11 08:36:16;;;;;;;40.25;28.85;;;;;;;15.43;46.01;99682.66;2220798;80;20960;-80
2021/11/11 08:39:16;;;;;;;46.77;32.25;;;;;;;13.35;47.67;99696.27;2220556;80;21331;-79
2021/11/11 08:42:17;;;;;;;45.60;32.25;;;;;;;12.05;50.49;99706.62;2220431;80;21063;-79
2021/11/11 08:45:17;;;;;;;42.58;32.20;;;;;;;11.17;52.98;99713.38;2220814;80;21277;-80
2021/11/11 08:48:18;;;;;;;42.93;31.48;;;;;;;10.58;54.47;99704.98;2220392;80;20955;-79
2021/11/11 08:51:18;;;;;;;38.67;27.55;;;;;;;10.18;55.84;99703.00;2220630;80;20952;-79
2021/11/11 08:54:19;;;;;;;35.00;26.02;;;;;;;10.08;57.32;99703.59;2220760;80;20928;-78
2021/11/11 08:57:20;;;;;;;49.88;31.45;;;;;;;9.83;58.34;99700.72;2220848;80;21378;-79
2021/11/11 09:00:20;;;;;;;38.20;25.23;;;;;;;9.60;58.74;99697.88;2220619;80;21355;-77
2021/11/11 09:03:21;;;;;;;37.30;26.55;;;;;;;9.51;59.55;99694.55;2220453;80;21026;-78
2021/11/11 09:06:21;;;;;;;38.98;29.23;;;;;;;9.39;60.33;99693.77;2220124;80;20988;-78
2021/11/11 09:09:22;;;;;;;35.60;27.00;;;;;;;9.38;60.99;99699.81;2220506;80;21006;-77
2021/11/11 09:12:23;;;;;;;30.90;25.45;;;;;;;9.32;60.92;99689.20;2220048;80;21035;-77
2021/11/11 09:15:23;;;;;;;30.35;22.85;;;;;;;9.37;61.64;99687.63;2220025;80;20928;-78
2021/11/11 09:18:24;;;;;;;31.83;24.97;;;;;;;9.38;61.72;99688.50;2220959;80;20952;-77
2021/11/11 09:21:24;;;;;;;32.90;24.03;;;;;;;9.37;61.91;99699.34;2220241;80;20944;-78
2021/11/11 09:24:25;;;;;;;32.43;24.33;;;;;;;9.34;62.12;99691.44;2220321;80;20936;-78
2021/11/11 09:27:25;;;;;;;33.37;24.27;;;;;;;9.29;62.22;99690.41;2220086;80;20987;-78
2021/11/11 09:30:26;;;;;;;30.90;22.17;;;;;;;9.30;62.50;99684.37;2220135;80;20932;-77
2021/11/11 09:33:26;;;;;;;33.53;23.00;;;;;;;9.29;62.63;99684.32;2220360;80;20968;-78
2021/11/11 09:36:27;;;;;;;38.10;22.93;;;;;;;9.28;62.89;99676.92;2220430;80;20940;-78
2021/11/11 09:39:27;;;;;;;35.60;23.57;;;;;;;9.41;62.93;99676.45;2220349;80;20955;-79
2021/11/11 09:42:28;;;;;;;31.00;23.77;;;;;;;9.50;62.81;99674.11;2220584;80;20984;-77
2021/11/11 09:45:29;;;;;;;31.50;22.73;;;;;;;9.56;62.65;99670.41;2221145;80;20968;-77
2021/11/11 09:48:30;;;;;;;30.53;22.30;;;;;;;9.58;62.63;99678.28;2220565;80;21351;-78
2021/11/11 09:51:30;;;;;;;29.60;24.03;;;;;;;9.56;62.77;99662.59;2220667;80;20976;-80
2021/11/11 10:00:52;;;;;;;31.47;22.23;;;;;;;9.67;62.68;99651.17;2221379;80;20994;-77
2021/11/11 10:03:52;;;;;;;30.23;20.87;;;;;;;9.62;62.78;99650.58;2220889;80;20981;-78
2021/11/11 10:06:53;;;;;;;31.25;22.48;;;;;;;9.65;63.07;99658.48;2221205;80;20956;-79
2021/11/11 10:09:53;;;;;;;34.77;23.00;;;;;;;9.65;62.94;99640.23;2220958;80;21363;-79
2021/11/11 10:12:54;;;;;;;31.30;22.83;;;;;;;9.68;62.88;99639.91;2210358;81;21360;-79
2021/11/11 10:15:54;;;;;;;31.67;23.33;;;;;;;9.69;63.11;99638.18;2210625;81;20940;-78
2021/11/11 10:18:55;;;;;;;34.20;22.50;;;;;;;9.74;63.46;99628.34;2210739;81;20952;-78
2021/11/11 10:21:58;;;;;;;33.13;23.87;;;;;;;9.81;63.05;99631.58;2210625;81;20988;-80
2021/11/11 10:25:02;;;;;;;32.70;22.67;;;;;;;9.85;63.11;99633.84;2210019;81;20945;-78
2021/11/11 10:28:03;;;;;;;;;;;;;;;9.93;62.96;99635.36;2213376;81;21067;-79
2021/11/11 10:31:04;;;;;;;32.03;23.07;;;;;;;9.89;62.55;99633.09;2209762;81;20156;-78
2021/11/11 10:34:04;;;;;;;31.53;23.73;;;;;;;9.89;63.06;99627.87;2209687;81;20924;-78
2021/11/11 10:37:05;;;;;;;36.85;27.17;;;;;;;9.93;63.18;99625.81;2210985;81;20917;-78
2021/11/11 10:40:05;;;;;;;35.83;24.15;;;;;;;10.01;63.33;99620.37;2210704;81;20936;-79
2021/11/11 10:43:06;;;;;;;32.27;23.37;;;;;;;10.03;63.15;99621.72;2210984;81;20964;-79
2021/11/11 10:46:06;;;;;;;29.43;21.77;;;;;;;10.05;62.88;99613.09;2210692;81;20964;-78
2021/11/11 10:49:07;;;;;;;33.13;24.33;;;;;;;10.04;62.47;99610.44;2210208;81;21407;-77
2021/11/11 10:52:07;;;;;;;29.43;19.67;;;;;;;9.96;62.55;99607.64;2210521;81;20965;-79
2021/11/11 10:55:08;;;;;;;37.13;23.50;;;;;;;9.93;63.01;99603.64;2210597;81;20941;-77
2021/11/11 10:58:10;;;;;;;30.67;21.07;;;;;;;9.99;63.17;99602.92;2210353;81;20976;-78
2021/11/11 11:01:11;;;;;;;30.80;22.10;;;;;;;10.00;62.98;99596.44;2210466;81;21004;-78
2021/11/11 11:04:11;;;;;;;31.20;22.73;;;;;;;10.00;63.22;99595.13;2210500;81;20965;-77
2021/11/11 11:07:12;;;;;;;28.60;21.67;;;;;;;10.08;63.23;99592.30;2210367;81;21783;-77
2021/11/11 11:10:17;;;;;;;31.97;23.20;;;;;;;10.18;62.75;99600.83;2209886;81;21343;-78
2021/11/11 11:13:17;;;;;;;31.40;23.05;;;;;;;10.22;63.05;99601.81;2209746;81;21025;-78
2021/11/11 11:16:18;;;;;;;29.80;21.70;;;;;;;10.31;63.07;99606.38;2209849;81;20963;-79
2021/11/11 11:19:18;;;;;;;28.37;22.17;;;;;;;10.38;62.96;99603.08;2209997;81;20952;-77
2021/11/11 11:22:19;;;;;;;28.33;19.90;;;;;;;10.42;63.01;99596.70;2210085;81;20939;-77
2021/11/11 11:25:19;;;;;;;27.42;20.52;;;;;;;10.51;62.60;99598.65;2210610;81;20964;-78
2021/11/11 11:28:20;;;;;;;31.00;22.22;;;;;;;10.54;62.56;99597.41;2210558;81;21360;-78
2021/11/11 11:31:20;;;;;;;27.37;20.32;;;;;;;10.56;62.82;99591.81;2210708;81;21307;-78
2021/11/11 11:34:21;;;;;;;26.02;20.50;;;;;;;10.68;62.77;99581.66;2210796;81;21011;-78
2021/11/11 11:37:21;;;;;;;25.77;20.60;;;;;;;10.77;62.76;99576.64;2211144;81;20963;-78
2021/11/11 11:40:23;;;;;;;30.82;22.10;;;;;;;10.82;62.31;99566.30;2210703;81;21028;-79
2021/11/11 11:43:24;;;;;;;29.87;19.92;;;;;;;10.91;62.65;99564.31;2209995;81;21367;-79
2021/11/11 11:46:25;;;;;;;23.70;17.60;;;;;;;11.00;62.18;99572.34;2210148;81;20992;-78
2021/11/11 11:49:26;;;;;;;23.27;18.25;;;;;;;11.04;61.60;99568.95;2210291;81;20940;-77
2021/11/11 11:52:28;;;;;;;23.65;18.15;;;;;;;11.07;61.58;99576.42;2209883;81;21490;-78
2021/11/11 11:58:44;;;;;;;20.37;16.17;;;;;;;11.19;61.94;99577.11;2189282;81;20983;-78
2021/11/11 12:02:12;;;;;;;18.20;14.25;;;;;;;11.30;61.56;99573.02;2210323;80;20948;-78
2021/11/11 12:10:56;;;;;;;18.80;13.78;;;;;;;11.46;59.69;99565.06;2190768;80;21422;-77
2021/11/11 12:14:07;;;;;;;14.70;12.68;;;;;;;11.48;59.88;99562.05;2220485;80;20932;-77
2021/11/11 12:17:15;;;;;;;14.50;11.80;;;;;;;11.47;60.13;99558.55;2219554;80;21320;-77
2021/11/11 12:34:13;;;;;;;20.92;12.65;;;;;;;11.66;60.30;99554.55;2220958;80;21006;-78
2021/11/11 12:39:40;;;;;;;26.85;13.83;;;;;;;11.83;59.25;99555.33;2220397;80;20951;-77
2021/11/11 12:42:42;;;;;;;22.10;14.03;;;;;;;11.79;58.96;99560.92;2220778;80;20992;-80
2021/11/11 12:48:47;;;;;;;17.02;12.85;;;;;;;11.62;58.57;99556.66;2192710;80;21118;-81
2021/11/11 12:51:48;;;;;;;28.20;17.80;;;;;;;11.56;59.30;99556.97;2221839;80;21408;-78
2021/11/11 12:54:49;;;;;;;16.90;12.75;;;;;;;11.52;59.46;99562.56;2220963;80;20940;-78
2021/11/11 12:57:50;;;;;;;14.20;12.25;;;;;;;11.46;58.45;99558.52;2221148;80;21328;-77
2021/11/11 13:00:50;;;;;;;21.35;14.55;;;;;;;11.38;59.42;99562.30;2221201;80;20987;-78
2021/11/11 13:03:51;;;;;;;15.85;13.05;;;;;;;11.33;59.05;99565.24;2220583;80;20987;-78
2021/11/11 13:06:51;;;;;;;20.57;14.78;;;;;;;11.31;59.66;99561.72;2220596;80;20988;-77
2021/11/11 13:09:52;;;;;;;23.93;15.07;;;;;;;11.29;59.54;99559.50;2220542;80;21305;-77
2021/11/11 13:12:52;;;;;;;20.17;14.97;;;;;;;11.24;59.72;99552.37;2220376;80;21047;-78
2021/11/11 13:15:54;;;;;;;19.85;13.80;;;;;;;11.16;59.71;99555.72;2220271;80;21340;-78
2021/11/11 13:18:55;;;;;;;21.48;15.63;;;;;;;11.09;60.22;99562.09;2219532;80;21003;-77
2021/11/11 13:21:57;;;;;;;19.73;14.15;;;;;;;11.03;60.31;99560.23;2219335;80;20991;-79
2021/11/11 14:00:53;;;;;;;24.43;18.80;;;;;;;10.39;63.02;99536.98;2221351;80;20984;-77
2021/11/11 15:17:22;;;;;;;19.20;14.90;;;;;;;7.02;71.21;99572.97;2210514;81;20963;-78
2021/11/11 15:47:08;;;;;;;50.93;30.17;;;;;;;5.67;74.29;99577.38;2210503;81;21011;-78
2021/11/11 16:25:08;;;;;;;64.83;37.17;;;;;;;4.57;76.51;99584.86;2210403;81;20991;-80
2021/11/11 16:28:06;;;;;;;62.47;37.13;;;;;;;4.50;76.55;99593.14;2210495;80;21422;-78
2021/11/11 16:31:06;;;;;;;59.90;35.53;;;;;;;4.41;76.47;99588.42;2210903;81;20948;-79
2021/11/11 16:34:07;;;;;;;57.87;36.27;;;;;;;4.37;76.81;99587.80;2210832;81;20925;-80
2021/11/11 16:37:08;;;;;;;61.80;36.47;;;;;;;4.31;77.07;99598.69;2210812;81;20987;-78
2021/11/11 16:40:08;;;;;;;50.20;33.50;;;;;;;4.26;77.18;99605.74;2210557;81;21438;-78
2021/11/11 16:43:09;;;;;;;50.17;31.13;;;;;;;4.19;77.22;99607.55;2210973;81;20993;-78
2021/11/11 16:46:10;;;;;;;53.87;33.53;;;;;;;4.10;77.29;99598.53;2210778;81;20952;-79
2021/11/11 16:49:11;;;;;;;49.20;28.77;;;;;;;4.04;77.28;99594.36;2210950;81;20976;-78
2021/11/11 16:52:11;;;;;;;43.17;26.80;;;;;;;3.99;77.29;99600.99;2210849;81;20949;-78
2021/11/11 16:55:12;;;;;;;36.43;23.73;;;;;;;3.91;77.44;99596.26;2210566;81;20981;-78
2021/11/11 16:58:12;;;;;;;42.37;24.47;;;;;;;3.86;77.47;99602.89;2210751;81;20972;-78
2021/11/11 17:01:12;;;;;;;42.27;26.90;;;;;;;3.81;77.90;99611.30;2210764;81;20937;-77
2021/11/11 17:04:13;;;;;;;43.40;28.57;;;;;;;3.79;78.06;99610.33;2209842;81;21351;-78
2021/11/11 17:07:14;;;;;;;50.53;28.73;;;;;;;3.77;78.61;99607.19;2210241;81;21300;-78
2021/11/11 17:13:17;;;;;;;51.57;31.53;;;;;;;3.71;78.26;99609.05;2188332;81;21390;-78
2021/11/11 17:16:19;;;;;;;44.13;26.00;;;;;;;3.69;78.97;99611.96;2210807;81;20995;-78
2021/11/11 17:19:21;;;;;;;40.27;25.40;;;;;;;3.69;78.88;99613.25;2210961;81;21000;-77
2021/11/11 17:22:32;;;;;;;35.30;22.70;;;;;;;3.65;78.88;99613.91;2210836;81;20952;-78
2021/11/11 17:28:33;;;;;;;41.87;24.97;;;;;;;3.65;79.02;99614.31;2189097;81;20995;-77
2021/11/11 17:31:33;;;;;;;44.50;25.47;;;;;;;3.60;79.26;99614.48;2209893;81;20999;-77
2021/11/11 17:34:34;;;;;;;41.53;27.53;;;;;;;3.58;79.08;99611.81;2210160;81;21324;-78
2021/11/11 17:37:35;;;;;;;46.20;29.50;;;;;;;3.59;79.63;99617.47;2210777;81;21382;-77
2021/11/11 17:40:35;;;;;;;46.93;28.50;;;;;;;3.66;79.98;99614.39;2210676;81;20964;-77
2021/11/11 17:43:36;;;;;;;41.93;28.47;;;;;;;3.76;80.23;99617.03;2210816;81;20980;-79
2021/11/11 17:46:39;;;;;;;62.60;29.93;;;;;;;3.79;80.05;99618.08;2210896;81;20944;-77
2021/11/11 17:49:42;;;;;;;40.63;28.63;;;;;;;3.87;80.59;99614.59;2210687;81;20984;-78
2021/11/11 17:52:49;;;;;;;45.17;27.83;;;;;;;3.93;80.69;99611.42;2210464;80;20991;-77